createdAt,value
2023-01-30T00:02:07.631Z,20.60
2023-01-30T00:04:35.315Z,20.80
2023-01-30T00:07:02.957Z,20.70
2023-01-30T00:09:30.611Z,21.90
2023-01-30T00:11:58.279Z,20.90
2023-01-30T00:14:25.929Z,19.50
2023-01-30T00:16:53.545Z,19.90
2023-01-30T00:19:21.926Z,20.00
2023-01-30T00:21:49.532Z,19.80
2023-01-30T00:24:20.620Z,19.10
2023-01-30T00:26:48.343Z,18.80
2023-01-30T00:29:15.987Z,19.30
2023-01-30T00:31:43.823Z,20.00
2023-01-30T00:34:11.487Z,19.60
2023-01-30T00:36:40.676Z,20.60
2023-01-30T00:39:08.297Z,20.40
2023-01-30T00:41:54.550Z,19.60
2023-01-30T00:44:41.257Z,20.80
2023-01-30T00:47:09.736Z,21.20
2023-01-30T00:49:38.075Z,22.20
2023-01-30T00:52:06.087Z,23.10
2023-01-30T00:54:34.353Z,22.70
2023-01-30T00:57:02.074Z,22.70
2023-01-30T00:59:30.028Z,22.80
2023-01-30T01:01:57.786Z,23.00
2023-01-30T01:04:25.824Z,22.00
2023-01-30T01:06:53.458Z,22.60
2023-01-30T01:09:21.235Z,21.80
2023-01-30T01:11:48.925Z,22.50
2023-01-30T01:14:16.554Z,21.10
2023-01-30T01:16:44.584Z,22.10
2023-01-30T01:19:12.468Z,22.20
2023-01-30T01:21:41.606Z,21.00
2023-01-30T01:24:12.258Z,23.30
2023-01-30T01:26:40.062Z,22.50
2023-01-30T01:29:14.272Z,23.20
2023-01-30T01:31:43.503Z,22.80
2023-01-30T01:34:11.613Z,22.30
2023-01-30T01:36:54.988Z,23.10
2023-01-30T01:39:23.266Z,23.30
2023-01-30T01:41:51.786Z,22.40
2023-01-30T01:44:19.488Z,21.70
2023-01-30T01:46:53.619Z,22.40
2023-01-30T01:49:25.693Z,23.50
2023-01-30T01:51:59.412Z,22.00
2023-01-30T01:54:32.997Z,21.40
2023-01-30T01:57:03.751Z,22.70
2023-01-30T01:59:39.033Z,21.60
2023-01-30T02:02:10.860Z,22.30
2023-01-30T02:04:59.934Z,22.70
2023-01-30T02:07:31.008Z,23.60
2023-01-30T02:09:58.843Z,22.70
2023-01-30T02:12:26.815Z,22.70
2023-01-30T02:14:56.380Z,22.60
2023-01-30T02:17:24.717Z,23.50
2023-01-30T02:20:31.290Z,23.60
2023-01-30T02:23:17.284Z,23.90
2023-01-30T02:26:27.032Z,24.00
2023-01-30T02:29:23.619Z,23.10
2023-01-30T02:32:06.828Z,24.20
2023-01-30T02:35:10.973Z,24.40
2023-01-30T02:37:54.930Z,22.80
2023-01-30T02:40:31.167Z,23.90
2023-01-30T02:43:20.594Z,24.00
2023-01-30T02:45:54.975Z,23.70
2023-01-30T02:48:23.534Z,23.30
2023-01-30T02:50:57.532Z,23.40
2023-01-30T02:53:25.909Z,22.70
2023-01-30T02:55:53.602Z,22.80
2023-01-30T02:58:23.300Z,22.00
2023-01-30T03:01:04.614Z,21.10
2023-01-30T03:04:01.693Z,21.70
2023-01-30T03:07:02.415Z,20.50
2023-01-30T03:09:49.899Z,21.20
2023-01-30T03:12:19.113Z,20.50
2023-01-30T03:14:52.867Z,20.60
2023-01-30T03:17:23.287Z,19.60
2023-01-30T03:19:53.303Z,19.30
2023-01-30T03:22:22.150Z,18.80
2023-01-30T03:24:51.649Z,18.80
2023-01-30T03:27:20.095Z,17.90
2023-01-30T03:29:48.437Z,17.90
2023-01-30T03:32:16.276Z,18.00
2023-01-30T03:34:44.080Z,17.80
2023-01-30T03:37:11.950Z,18.30
2023-01-30T03:39:39.771Z,17.60
2023-01-30T03:42:08.033Z,17.70
2023-01-30T03:44:35.715Z,18.40
2023-01-30T03:47:03.415Z,18.90
2023-01-30T03:49:31.075Z,18.70
2023-01-30T03:51:59.295Z,18.60
2023-01-30T03:54:27.439Z,19.00
2023-01-30T03:56:55.487Z,20.20
2023-01-30T03:59:24.044Z,20.50
2023-01-30T04:01:57.991Z,19.70
2023-01-30T04:04:25.966Z,19.00
2023-01-30T04:06:53.692Z,20.40
2023-01-30T04:09:21.841Z,19.50
2023-01-30T04:11:52.872Z,20.20
2023-01-30T04:14:20.876Z,19.10
2023-01-30T04:17:07.399Z,19.50
2023-01-30T04:19:54.808Z,19.20
2023-01-30T04:22:23.141Z,18.40
2023-01-30T04:24:50.889Z,18.60
2023-01-30T04:27:18.659Z,18.10
2023-01-30T04:30:04.295Z,18.30
2023-01-30T04:32:32.396Z,18.70
2023-01-30T04:35:01.236Z,19.00
2023-01-30T04:37:28.937Z,18.70
2023-01-30T04:39:56.946Z,18.60
2023-01-30T04:42:24.752Z,18.10
2023-01-30T04:45:12.417Z,17.60
2023-01-30T04:47:40.278Z,17.20
2023-01-30T04:50:09.026Z,17.80
2023-01-30T04:52:39.622Z,18.60
2023-01-30T04:55:09.110Z,18.10
2023-01-30T04:57:36.840Z,17.70
2023-01-30T05:00:06.215Z,18.20
2023-01-30T05:02:34.876Z,18.30
2023-01-30T05:05:02.780Z,17.60
2023-01-30T05:07:30.396Z,17.60
2023-01-30T05:09:58.054Z,17.10
2023-01-30T05:12:25.733Z,18.30
2023-01-30T05:14:53.952Z,15.20
2023-01-30T05:17:21.673Z,18.00
2023-01-30T05:19:49.498Z,17.50
2023-01-30T05:22:17.149Z,17.90
2023-01-30T05:24:44.807Z,17.20
2023-01-30T05:27:12.521Z,17.40
2023-01-30T05:29:40.325Z,17.70
2023-01-30T05:32:07.958Z,17.10
2023-01-30T05:34:35.599Z,15.60
2023-01-30T05:37:03.267Z,17.00
2023-01-30T05:39:31.531Z,15.70
2023-01-30T05:41:59.499Z,16.70
2023-01-30T05:44:27.271Z,16.60
2023-01-30T05:46:54.971Z,17.80
2023-01-30T05:49:22.643Z,16.70
2023-01-30T05:51:51.555Z,17.80
2023-01-30T05:54:19.336Z,19.20
2023-01-30T05:56:50.505Z,19.20
2023-01-30T05:59:21.126Z,18.80
2023-01-30T06:01:48.942Z,19.80
2023-01-30T06:04:16.582Z,20.70
2023-01-30T06:06:44.325Z,20.60
2023-01-30T06:09:12.164Z,20.60
2023-01-30T06:11:39.809Z,20.70
2023-01-30T06:14:07.494Z,20.50
2023-01-30T06:16:35.544Z,18.80
2023-01-30T06:19:03.259Z,19.10
2023-01-30T06:21:31.311Z,19.40
2023-01-30T06:23:59.010Z,19.20
2023-01-30T06:26:26.668Z,18.80
2023-01-30T06:28:54.320Z,19.60
2023-01-30T06:31:22.114Z,18.00
2023-01-30T06:33:49.871Z,18.50
2023-01-30T06:36:17.600Z,19.10
2023-01-30T06:38:45.244Z,18.40
2023-01-30T06:41:12.954Z,19.80
2023-01-30T06:43:42.530Z,20.90
2023-01-30T06:46:10.231Z,20.00
2023-01-30T06:48:37.979Z,20.40
2023-01-30T06:51:06.045Z,19.90
2023-01-30T06:53:33.746Z,19.70
2023-01-30T06:56:01.974Z,22.40
2023-01-30T06:58:30.002Z,21.10
2023-01-30T07:00:57.731Z,23.40
2023-01-30T07:03:25.454Z,21.40
2023-01-30T07:05:54.097Z,21.60
2023-01-30T07:08:23.975Z,21.60
2023-01-30T07:10:52.053Z,21.00
2023-01-30T07:13:19.997Z,22.00
2023-01-30T07:15:47.754Z,21.50
2023-01-30T07:18:15.472Z,22.70
2023-01-30T07:20:47.224Z,22.20
2023-01-30T07:23:15.051Z,22.30
2023-01-30T07:25:42.764Z,23.10
2023-01-30T07:28:11.075Z,22.80
2023-01-30T07:30:39.004Z,23.20
2023-01-30T07:33:07.226Z,23.60
2023-01-30T07:35:37.191Z,24.30
2023-01-30T07:38:05.617Z,24.10
2023-01-30T07:40:33.533Z,28.70
2023-01-30T07:43:04.817Z,26.40
2023-01-30T07:45:42.790Z,26.20
2023-01-30T07:48:12.507Z,26.50
2023-01-30T07:50:40.456Z,26.10
2023-01-30T07:53:10.607Z,26.50
2023-01-30T07:55:38.467Z,23.40
2023-01-30T07:58:06.160Z,24.60
2023-01-30T08:00:34.443Z,23.80
2023-01-30T08:03:02.190Z,25.70
2023-01-30T08:05:30.126Z,26.10
2023-01-30T08:07:57.866Z,24.60
2023-01-30T08:10:25.593Z,23.60
2023-01-30T08:12:53.401Z,25.00
2023-01-30T08:15:22.836Z,24.80
2023-01-30T08:17:55.592Z,25.80
2023-01-30T08:20:23.943Z,25.00
2023-01-30T08:22:51.595Z,25.00
2023-01-30T08:25:19.436Z,26.40
2023-01-30T08:27:47.205Z,24.40
2023-01-30T08:30:14.959Z,27.90
2023-01-30T08:32:42.687Z,25.80
2023-01-30T08:35:10.848Z,25.10
2023-01-30T08:37:42.146Z,25.70
2023-01-30T08:40:10.464Z,25.60
2023-01-30T08:42:38.329Z,25.00
2023-01-30T08:45:07.026Z,29.60
2023-01-30T08:47:35.619Z,24.80
2023-01-30T08:50:04.502Z,25.60
2023-01-30T08:52:33.284Z,25.30
2023-01-30T08:55:01.078Z,24.60
2023-01-30T08:57:28.797Z,23.70
2023-01-30T08:59:56.493Z,25.80
2023-01-30T09:02:24.233Z,26.00
2023-01-30T09:04:52.117Z,23.80
2023-01-30T09:07:19.861Z,25.10
2023-01-30T09:09:48.714Z,24.50
2023-01-30T09:12:16.474Z,23.50
2023-01-30T09:14:44.148Z,25.20
2023-01-30T09:17:12.125Z,24.60
2023-01-30T09:19:39.909Z,27.00
2023-01-30T09:22:07.778Z,23.90
2023-01-30T09:24:35.511Z,24.70
2023-01-30T09:27:03.258Z,25.20
2023-01-30T09:29:31.067Z,25.80
2023-01-30T09:31:58.986Z,24.70
2023-01-30T09:34:28.612Z,25.30
2023-01-30T09:37:01.794Z,24.20
2023-01-30T09:39:30.431Z,23.50
2023-01-30T09:42:21.148Z,23.50
2023-01-30T09:45:27.306Z,23.00
2023-01-30T09:48:13.521Z,22.90
2023-01-30T09:51:16.090Z,25.20
2023-01-30T09:54:00.808Z,24.40
2023-01-30T09:56:29.039Z,26.20
2023-01-30T09:58:59.233Z,27.40
2023-01-30T10:01:48.730Z,24.60
2023-01-30T10:04:32.451Z,27.70
2023-01-30T10:07:14.394Z,26.30
2023-01-30T10:09:54.408Z,27.40
2023-01-30T10:12:44.758Z,29.60
2023-01-30T10:15:34.590Z,25.90
2023-01-30T10:18:25.218Z,27.70
2023-01-30T10:38:38.035Z,16.90
2023-01-30T10:41:24.883Z,21.60
2023-01-30T10:44:02.557Z,22.60
2023-01-30T10:46:51.166Z,21.70
2023-01-30T10:49:26.482Z,22.00
2023-01-30T10:52:17.532Z,22.70
2023-01-30T10:55:00.398Z,23.10
2023-01-30T10:57:39.447Z,24.00
2023-01-30T11:00:28.037Z,23.90
2023-01-30T11:03:17.066Z,23.30
2023-01-30T11:05:50.385Z,24.90
2023-01-30T11:08:29.439Z,25.10
2023-01-30T11:10:58.345Z,23.50
2023-01-30T11:13:33.698Z,24.80
2023-01-30T11:16:07.046Z,25.60
2023-01-30T11:19:18.666Z,23.90
2023-01-30T11:21:43.903Z,23.60
2023-01-30T11:24:17.179Z,25.10
2023-01-30T11:26:48.067Z,30.50
2023-01-30T11:29:32.399Z,31.80
2023-01-30T11:32:12.105Z,25.80
2023-01-30T11:34:42.320Z,25.70
2023-01-30T11:37:28.426Z,28.20
2023-01-30T11:39:56.544Z,26.40
2023-01-30T11:42:31.162Z,28.20
2023-01-30T11:45:15.997Z,23.20
2023-01-30T11:47:57.769Z,22.20
2023-01-30T11:50:36.370Z,22.20
2023-01-30T11:53:45.289Z,22.90
2023-01-30T11:56:39.472Z,24.70
2023-01-30T11:59:25.059Z,26.70
2023-01-30T12:01:53.445Z,25.20
2023-01-30T12:04:22.717Z,30.70
2023-01-30T12:07:23.620Z,34.00
2023-01-30T12:09:52.965Z,24.90
2023-01-30T12:12:35.304Z,28.10
2023-01-30T12:15:12.072Z,24.30
2023-01-30T12:17:49.735Z,23.10
2023-01-30T12:20:26.198Z,23.30
2023-01-30T12:23:04.374Z,25.80
2023-01-30T12:25:54.876Z,24.80
2023-01-30T12:28:46.487Z,23.60
2023-01-30T12:31:20.283Z,24.10
2023-01-30T12:33:48.709Z,25.50
2023-01-30T12:36:24.352Z,30.00
2023-01-30T12:39:23.333Z,22.40
2023-01-30T12:42:22.777Z,30.90
2023-01-30T12:45:19.487Z,26.40
2023-01-30T12:47:50.539Z,24.90
2023-01-30T12:50:24.305Z,26.50
2023-01-30T12:52:54.975Z,25.50
2023-01-30T12:55:32.944Z,25.30
2023-01-30T12:58:03.623Z,24.40
2023-01-30T13:00:34.064Z,74.80
2023-01-30T13:03:13.965Z,99.40
2023-01-30T13:05:56.843Z,72.20
2023-01-30T13:08:39.912Z,29.60
2023-01-30T13:11:38.108Z,22.30
2023-01-30T13:14:17.131Z,20.70
2023-01-30T13:17:14.399Z,19.00
2023-01-30T13:20:15.433Z,18.50
2023-01-30T13:22:57.805Z,19.00
2023-01-30T13:25:32.422Z,21.70
2023-01-30T13:28:06.706Z,30.50
2023-01-30T13:30:34.710Z,28.90
2023-01-30T13:33:10.904Z,44.90
2023-01-30T13:35:46.953Z,33.20
2023-01-30T13:38:20.107Z,33.90
2023-01-30T13:40:50.468Z,23.70
2023-01-30T13:43:26.269Z,24.90
2023-01-30T13:45:56.682Z,24.30
2023-01-30T13:48:39.807Z,23.40
2023-01-30T13:51:29.481Z,22.60
2023-01-30T13:54:12.351Z,24.10
2023-01-30T13:56:43.566Z,23.80
2023-01-30T13:59:20.540Z,24.50
2023-01-30T14:02:03.785Z,24.20
2023-01-30T14:04:40.814Z,24.00
2023-01-30T14:07:09.583Z,26.30
2023-01-30T14:09:37.344Z,25.60
2023-01-30T14:12:06.896Z,25.90
2023-01-30T14:14:40.661Z,26.10
2023-01-30T14:17:14.446Z,27.00
2023-01-30T14:19:42.976Z,25.70
2023-01-30T14:22:31.055Z,23.50
2023-01-30T14:25:30.243Z,24.70
2023-01-30T14:28:00.673Z,24.60
2023-01-30T14:30:31.476Z,25.10
2023-01-30T14:33:01.021Z,26.30
2023-01-30T14:35:32.693Z,32.00
2023-01-30T14:38:09.449Z,32.00
2023-01-30T14:40:39.292Z,58.30
2023-01-30T14:43:13.095Z,42.20
2023-01-30T14:46:00.936Z,42.80
2023-01-30T14:48:47.276Z,37.70
2023-01-30T14:51:37.193Z,39.20
2023-01-30T14:54:10.902Z,32.60
2023-01-30T14:56:47.101Z,36.30
2023-01-30T14:59:17.500Z,35.80
2023-01-30T15:01:59.394Z,75.00
2023-01-30T15:04:31.373Z,54.10
2023-01-30T15:07:01.324Z,42.30
2023-01-30T15:09:29.987Z,46.20
2023-01-30T15:12:13.734Z,62.00
2023-01-30T15:14:54.163Z,35.50
2023-01-30T15:17:29.037Z,53.80
2023-01-30T15:20:06.634Z,37.80
2023-01-30T15:22:43.493Z,40.50
2023-01-30T15:25:40.683Z,53.20
2023-01-30T15:28:59.704Z,40.10
2023-01-30T15:31:27.457Z,34.60
2023-01-30T15:33:58.738Z,33.30
2023-01-30T15:36:34.659Z,31.20
2023-01-30T15:39:05.552Z,28.50
2023-01-30T15:41:41.153Z,35.00
2023-01-30T15:44:35.152Z,28.00
2023-01-30T15:47:40.119Z,29.20
2023-01-30T15:50:09.882Z,28.30
2023-01-30T15:52:48.255Z,31.30
2023-01-30T15:55:24.000Z,29.70
2023-01-30T15:57:57.000Z,30.90
2023-01-30T16:00:33.780Z,29.50
2023-01-30T16:03:02.574Z,28.90
2023-01-30T16:05:30.718Z,27.30
2023-01-30T16:07:59.188Z,27.80
2023-01-30T16:10:29.655Z,28.10
2023-01-30T16:12:58.446Z,28.30
2023-01-30T16:15:35.056Z,28.00
2023-01-30T16:18:06.173Z,26.90
2023-01-30T16:20:58.985Z,26.80
2023-01-30T16:23:35.456Z,27.10
2023-01-30T16:26:04.523Z,25.50
2023-01-30T16:28:32.457Z,25.10
2023-01-30T16:31:01.912Z,23.00
2023-01-30T16:33:36.921Z,24.80
2023-01-30T16:36:26.481Z,41.20
2023-01-30T16:38:55.229Z,48.10
2023-01-30T16:41:39.676Z,42.10
2023-01-30T16:44:30.145Z,43.50
2023-01-30T16:47:05.348Z,35.00
2023-01-30T16:49:35.918Z,32.20
2023-01-30T16:52:18.129Z,28.40
2023-01-30T16:54:49.464Z,34.60
2023-01-30T16:57:35.027Z,28.90
2023-01-30T17:00:07.245Z,32.40
2023-01-30T17:02:37.818Z,35.10
2023-01-30T17:05:18.941Z,32.80
2023-01-30T17:07:47.719Z,35.00
2023-01-30T17:10:27.872Z,28.70
2023-01-30T17:12:56.318Z,27.70
2023-01-30T17:15:32.551Z,31.40
2023-01-30T17:18:00.933Z,27.30
2023-01-30T17:20:37.301Z,26.10
2023-01-30T17:23:09.326Z,22.50
2023-01-30T17:25:41.507Z,23.70
2023-01-30T17:28:17.608Z,22.40
2023-01-30T17:30:45.246Z,19.50
2023-01-30T17:33:12.985Z,21.90
2023-01-30T17:35:40.721Z,40.90
2023-01-30T17:38:09.705Z,22.70
2023-01-30T17:40:38.896Z,21.80
2023-01-30T17:43:06.596Z,22.30
2023-01-30T17:45:35.700Z,24.00
2023-01-30T17:48:03.523Z,21.20
2023-01-30T17:50:32.552Z,20.00
2023-01-30T17:53:00.240Z,21.90
2023-01-30T17:55:27.982Z,18.80
2023-01-30T17:57:56.515Z,17.60
2023-01-30T18:00:24.357Z,19.80
2023-01-30T18:02:53.102Z,20.70
2023-01-30T18:05:22.245Z,20.00
2023-01-30T18:07:49.935Z,18.80
2023-01-30T18:10:19.938Z,21.00
2023-01-30T18:12:47.904Z,19.70
2023-01-30T18:15:16.323Z,18.90
2023-01-30T18:17:47.460Z,17.60
2023-01-30T18:20:18.614Z,17.70
2023-01-30T18:22:46.881Z,21.50
2023-01-30T18:25:15.565Z,19.80
2023-01-30T18:27:44.934Z,18.50
2023-01-30T18:30:17.001Z,21.80
2023-01-30T18:32:52.815Z,20.10
2023-01-30T18:35:22.682Z,21.40
2023-01-30T18:37:50.990Z,20.00
2023-01-30T18:40:20.319Z,21.30
2023-01-30T18:42:48.369Z,19.60
2023-01-30T18:45:16.184Z,21.90
2023-01-30T18:47:43.957Z,23.00
2023-01-30T18:50:12.222Z,22.60
2023-01-30T18:52:40.014Z,20.70
2023-01-30T18:55:08.035Z,19.30
2023-01-30T18:57:35.702Z,20.60
2023-01-30T19:00:03.942Z,20.10
2023-01-30T19:02:31.727Z,19.80
2023-01-30T19:04:59.653Z,19.70
2023-01-30T19:07:27.348Z,17.80
2023-01-30T19:09:56.447Z,19.20
2023-01-30T19:12:42.643Z,17.90
2023-01-30T19:15:10.611Z,18.40
2023-01-30T19:17:38.485Z,18.10
2023-01-30T19:20:10.959Z,18.40
2023-01-30T19:22:39.155Z,15.80
2023-01-30T19:25:07.612Z,17.10
2023-01-30T19:27:38.513Z,15.60
2023-01-30T19:30:07.472Z,15.50
2023-01-30T19:32:35.392Z,15.30
2023-01-30T19:35:03.240Z,15.50
2023-01-30T19:37:30.918Z,16.30
2023-01-30T19:39:58.652Z,15.40
2023-01-30T19:42:26.383Z,15.50
2023-01-30T19:44:54.292Z,18.30
2023-01-30T19:47:22.912Z,16.20
2023-01-30T19:49:50.614Z,16.10
2023-01-30T19:52:18.273Z,15.30
2023-01-30T19:54:47.064Z,14.20
2023-01-30T19:57:14.726Z,15.60
2023-01-30T19:59:43.370Z,14.20
2023-01-30T20:02:11.571Z,15.40
2023-01-30T20:04:40.650Z,16.10
2023-01-30T20:07:08.481Z,15.30
2023-01-30T20:09:36.175Z,14.90
2023-01-30T20:12:04.042Z,15.10
2023-01-30T20:14:31.837Z,15.90
2023-01-30T20:16:59.553Z,16.20
2023-01-30T20:19:27.263Z,17.10
2023-01-30T20:21:55.479Z,18.40
2023-01-30T20:24:23.176Z,18.10
2023-01-30T20:26:50.960Z,18.80
2023-01-30T20:29:19.010Z,17.90
2023-01-30T20:31:46.765Z,16.20
2023-01-30T20:34:15.397Z,17.50
2023-01-30T20:36:43.223Z,22.10
2023-01-30T20:39:11.454Z,20.30
2023-01-30T20:41:39.752Z,24.80
2023-01-30T20:44:10.642Z,16.90
2023-01-30T20:46:41.861Z,16.20
2023-01-30T20:49:18.499Z,17.90
2023-01-30T20:51:48.821Z,15.80
2023-01-30T20:54:18.657Z,22.40
2023-01-30T20:56:49.067Z,17.00
2023-01-30T20:59:19.881Z,29.10
2023-01-30T21:01:47.652Z,20.40
2023-01-30T21:04:16.624Z,16.70
2023-01-30T21:06:46.140Z,15.40
2023-01-30T21:09:24.390Z,16.50
2023-01-30T21:11:53.364Z,14.30
2023-01-30T21:14:21.706Z,15.30
2023-01-30T21:16:49.580Z,13.80
2023-01-30T21:19:17.688Z,14.40
2023-01-30T21:21:50.576Z,14.40
2023-01-30T21:24:24.366Z,14.20
2023-01-30T21:26:52.163Z,13.00
2023-01-30T21:29:23.028Z,18.50
2023-01-30T21:31:51.225Z,14.80
2023-01-30T21:34:19.111Z,11.90
2023-01-30T21:37:06.828Z,11.80
2023-01-30T21:39:53.796Z,13.30
2023-01-30T21:42:40.477Z,12.50
2023-01-30T21:45:08.580Z,14.30
2023-01-30T21:47:36.894Z,15.30
2023-01-30T21:50:05.346Z,16.20
2023-01-30T21:52:33.348Z,14.40
2023-01-30T21:55:01.244Z,13.30
2023-01-30T21:57:28.991Z,12.20
2023-01-30T21:59:56.652Z,12.80
2023-01-30T22:02:24.314Z,11.50
2023-01-30T22:04:52.163Z,12.30
2023-01-30T22:07:19.826Z,12.60
2023-01-30T22:09:48.877Z,12.40
2023-01-30T22:12:16.729Z,10.80
2023-01-30T22:14:44.886Z,10.90
2023-01-30T22:17:12.584Z,10.60
2023-01-30T22:19:40.861Z,11.30
2023-01-30T22:22:08.703Z,10.60
2023-01-30T22:24:36.375Z,9.70
2023-01-30T22:27:04.072Z,9.40
2023-01-30T22:29:31.786Z,8.90
2023-01-30T22:31:59.550Z,10.20
2023-01-30T22:34:27.269Z,10.60
2023-01-30T22:36:54.989Z,9.80
2023-01-30T22:39:22.630Z,9.60
2023-01-30T22:41:51.538Z,9.70
2023-01-30T22:44:19.262Z,9.10
2023-01-30T22:46:50.105Z,10.20
2023-01-30T22:49:17.850Z,9.20
2023-01-30T22:51:45.617Z,8.70
2023-01-30T22:54:17.713Z,9.80
2023-01-30T22:56:48.631Z,9.50
2023-01-30T22:59:16.534Z,9.40
2023-01-30T23:01:48.197Z,8.70
2023-01-30T23:04:18.582Z,9.60
2023-01-30T23:06:47.834Z,9.30
2023-01-30T23:09:19.418Z,8.40
2023-01-30T23:12:12.080Z,9.60
2023-01-30T23:14:40.491Z,8.60
2023-01-30T23:17:27.519Z,9.10
2023-01-30T23:19:55.483Z,8.20
2023-01-30T23:22:23.497Z,7.80
2023-01-30T23:24:51.546Z,8.30
2023-01-30T23:27:20.199Z,9.10
2023-01-30T23:29:48.154Z,8.70
2023-01-30T23:32:19.101Z,8.30
2023-01-30T23:34:47.831Z,8.30
2023-01-30T23:37:16.003Z,8.40
2023-01-30T23:39:44.568Z,8.90
2023-01-30T23:42:12.379Z,7.90
2023-01-30T23:44:40.203Z,8.10
2023-01-30T23:47:08.016Z,7.80
2023-01-30T23:49:35.651Z,7.90
2023-01-30T23:52:03.346Z,7.90
2023-01-30T23:54:31.101Z,7.60
2023-01-30T23:56:58.741Z,7.80
2023-01-30T23:59:26.390Z,7.90
